Terminal Aerodrome Forecast
Issued by NWS Cleveland, OH

Home | Current Version | Previous Version | Graphics & Text | Print | Product List | Glossary Off
Versions: 1 2 3 4 5 6 7 8 9 10 11 12 13 14 15 16 17 18 19 20 21 22 23 24 25 26 27 28 29 30 31

702
FTUS41 KCLE 182322
TAFCLE
TAF
KCLE 182322Z 1900/2006 23007KT 3SM -DZ BR OVC005
     FM190400 23007KT 4SM BR OVC005
     FM191500 22006KT P6SM OVC010
     FM191700 22005KT P6SM OVC015
     FM191900 20005KT P6SM SCT250
     FM200000 VRB03KT P6SM BKN250=

USA.gov is the U.S. government's official web portal to all federal, state and local government web resources and services.